Time;durP1;ratioP1;P1;durP2;ratioP2;P2;SDS_P1;SDS_P2;PMS_P1;PMS_P2;Temp;Humidity;BMP_temperature;BMP_pressure;BME280_temperature;BME280_humidity;BME280_pressure;Samples;Min_cycle;Max_cycle;Signal;HPM_P1;HPM_P2
2022/10/14 00:01:10;;;;;;;6.45;3.28;;;13.10;90.00;;;;;;5081265;28;23047;-67
2022/10/14 00:03:44;;;;;;;6.50;3.47;;;13.10;89.90;;;;;;5090468;28;20048;-66
2022/10/14 00:06:16;;;;;;;6.07;3.15;;;13.10;90.00;;;;;;5093664;28;20048;-66
2022/10/14 00:08:46;;;;;;;7.57;3.60;;;13.10;90.00;;;;;;5095942;28;20043;-67
2022/10/14 00:11:20;;;;;;;6.72;3.30;;;13.20;90.00;;;;;;5086761;28;20428;-67
2022/10/14 00:13:47;;;;;;;5.95;3.60;;;13.10;90.00;;;;;;5085878;28;20145;-67
2022/10/14 00:16:19;;;;;;;6.95;3.55;;;13.10;90.00;;;;;;5077016;28;20043;-66
2022/10/14 00:18:46;;;;;;;6.47;3.58;;;13.10;90.00;;;;;;5080602;28;20039;-67
2022/10/14 00:21:15;;;;;;;6.13;3.50;;;13.10;90.00;;;;;;5092607;28;20417;-67
2022/10/14 00:23:41;;;;;;;6.07;3.15;;;13.10;89.70;;;;;;5091478;28;20043;-67
2022/10/14 00:26:17;;;;;;;7.60;3.30;;;13.20;90.00;;;;;;5092495;28;20052;-66
2022/10/14 00:28:46;;;;;;;7.65;3.63;;;13.10;89.90;;;;;;5091588;28;20044;-66
2022/10/14 00:31:17;;;;;;;7.00;3.30;;;13.10;89.90;;;;;;5090887;28;20116;-67
2022/10/14 00:33:49;;;;;;;7.50;3.83;;;13.10;89.90;;;;;;5091886;28;20058;-67
2022/10/14 00:36:20;;;;;;;8.50;4.15;;;13.10;89.90;;;;;;5088676;28;20051;-67
2022/10/14 00:38:47;;;;;;;7.40;3.90;;;13.20;89.70;;;;;;5098900;28;20048;-67
2022/10/14 00:41:16;;;;;;;8.98;4.00;;;13.20;89.50;;;;;;5088237;28;20102;-68
2022/10/14 00:43:55;;;;;;;7.32;4.03;;;13.20;89.30;;;;;;5094163;28;20042;-68
2022/10/14 00:46:22;;;;;;;8.45;4.50;;;13.20;89.50;;;;;;5091121;28;20039;-67
2022/10/14 00:48:56;;;;;;;9.43;4.25;;;13.20;89.60;;;;;;5081238;28;20059;-66
2022/10/14 00:51:25;;;;;;;7.72;4.03;;;13.20;89.50;;;;;;5087885;28;20050;-68
2022/10/14 00:53:54;;;;;;;9.52;5.28;;;13.10;89.50;;;;;;5086473;28;20079;-67
2022/10/14 00:56:25;;;;;;;8.85;4.82;;;13.20;89.60;;;;;;5093462;28;20052;-67
2022/10/14 00:58:53;;;;;;;9.00;5.45;;;13.20;89.60;;;;;;5101301;28;20055;-67
2022/10/14 01:01:20;;;;;;;7.60;4.60;;;13.20;89.90;;;;;;5109956;28;20074;-67
2022/10/14 01:03:48;;;;;;;8.70;4.70;;;13.20;89.70;;;;;;5098633;28;20044;-66
2022/10/14 01:06:31;;;;;;;8.85;5.55;;;13.10;89.90;;;;;;5098144;28;20054;-66
2022/10/14 01:09:03;;;;;;;8.60;4.93;;;13.20;89.80;;;;;;5082324;28;20059;-67
2022/10/14 01:11:39;;;;;;;8.00;4.78;;;13.20;89.70;;;;;;5098592;28;20042;-66
2022/10/14 01:14:15;;;;;;;9.48;5.10;;;13.20;89.80;;;;;;5096952;28;20047;-66
2022/10/14 01:16:50;;;;;;;8.85;5.05;;;13.20;89.80;;;;;;5097291;28;20043;-66
2022/10/14 01:19:37;;;;;;;8.55;5.15;;;13.20;89.90;;;;;;5094017;28;20050;-67
2022/10/14 01:22:13;;;;;;;8.45;5.38;;;13.10;89.90;;;;;;5088849;27;20576;-66
2022/10/14 01:24:48;;;;;;;11.20;6.05;;;13.20;89.90;;;;;;5098220;28;20443;-67
2022/10/14 01:27:32;;;;;;;11.68;6.25;;;13.20;90.00;;;;;;5089279;28;20051;-65
2022/10/14 01:30:09;;;;;;;10.07;5.68;;;13.20;90.00;;;;;;5091646;28;20379;-66
2022/10/14 01:32:44;;;;;;;10.18;5.95;;;13.10;89.90;;;;;;5093649;28;20044;-67
2022/10/14 01:35:19;;;;;;;13.20;6.15;;;13.10;89.90;;;;;;5091963;28;20075;-66
2022/10/14 01:37:53;;;;;;;11.32;5.82;;;13.20;90.00;;;;;;5077817;28;20409;-67
2022/10/14 01:40:26;;;;;;;13.43;6.82;;;13.10;90.00;;;;;;5092768;28;20075;-67
2022/10/14 01:42:57;;;;;;;9.57;6.63;;;13.20;90.00;;;;;;5097601;28;20048;-66
2022/10/14 01:45:28;;;;;;;10.38;6.00;;;13.20;90.00;;;;;;5096262;28;20055;-67
2022/10/14 01:47:57;;;;;;;12.23;6.63;;;13.20;89.90;;;;;;5097322;28;20497;-67
2022/10/14 01:50:36;;;;;;;14.18;6.70;;;13.20;90.00;;;;;;5075311;28;20401;-67
2022/10/14 01:53:06;;;;;;;10.93;6.70;;;13.20;90.00;;;;;;5094728;28;20052;-67
2022/10/14 01:55:39;;;;;;;11.65;6.65;;;13.20;90.00;;;;;;5092613;28;20057;-67
2022/10/14 01:58:06;;;;;;;12.00;7.00;;;13.20;89.90;;;;;;5096631;28;20048;-66
2022/10/14 02:00:37;;;;;;;10.15;6.20;;;13.20;90.00;;;;;;5096546;28;20051;-67
2022/10/14 02:03:04;;;;;;;11.43;6.63;;;13.20;90.00;;;;;;5091371;28;20166;-66
2022/10/14 02:05:36;;;;;;;11.55;7.00;;;13.10;90.10;;;;;;5095792;28;20051;-66
2022/10/14 02:08:11;;;;;;;12.02;6.70;;;13.20;90.10;;;;;;5094700;28;20051;-67
2022/10/14 02:10:53;;;;;;;11.82;7.20;;;13.20;90.00;;;;;;5094525;28;20135;-66
2022/10/14 02:13:37;;;;;;;12.00;6.65;;;13.20;89.90;;;;;;5081809;28;20507;-66
2022/10/14 02:16:17;;;;;;;11.07;6.68;;;13.20;90.10;;;;;;5094766;28;20101;-66
2022/10/14 02:18:51;;;;;;;10.68;6.57;;;13.20;89.90;;;;;;5091468;28;20039;-66
2022/10/14 02:21:23;;;;;;;11.43;6.70;;;13.10;90.10;;;;;;5090689;28;20042;-68
2022/10/14 02:23:54;;;;;;;10.48;6.45;;;13.10;90.00;;;;;;5092006;28;20051;-66
2022/10/14 02:26:25;;;;;;;11.48;7.05;;;13.20;89.80;;;;;;5095003;28;20060;-66
2022/10/14 02:28:54;;;;;;;10.38;6.88;;;13.20;89.90;;;;;;5092336;28;20517;-67
2022/10/14 02:31:24;;;;;;;12.73;7.13;;;13.20;89.90;;;;;;5070752;28;20051;-65
2022/10/14 02:33:55;;;;;;;13.38;6.97;;;13.20;90.00;;;;;;5091517;28;20043;-67
2022/10/14 02:36:26;;;;;;;12.85;6.70;;;13.20;90.00;;;;;;5094953;28;20043;-67
2022/10/14 02:38:54;;;;;;;13.85;7.10;;;13.20;90.10;;;;;;5093941;28;20108;-67
2022/10/14 02:41:24;;;;;;;11.50;7.03;;;13.20;90.50;;;;;;5077810;28;20040;-67
2022/10/14 02:43:51;;;;;;;12.77;7.07;;;13.10;90.60;;;;;;5095729;28;20513;-67
2022/10/14 02:46:20;;;;;;;10.45;6.45;;;13.20;90.30;;;;;;5088516;28;20052;-67
2022/10/14 02:48:49;;;;;;;10.40;6.55;;;13.20;90.20;;;;;;5091323;28;20067;-67
2022/10/14 02:51:16;;;;;;;11.98;7.32;;;13.20;90.40;;;;;;5112195;27;20048;-66
2022/10/14 02:53:43;;;;;;;10.95;6.45;;;13.10;90.10;;;;;;5090933;28;20502;-66
2022/10/14 02:56:12;;;;;;;10.93;5.97;;;13.20;90.40;;;;;;5094496;28;20060;-67
2022/10/14 02:58:39;;;;;;;8.98;5.80;;;13.20;90.30;;;;;;5080201;28;20055;-67
2022/10/14 03:01:06;;;;;;;9.35;5.47;;;13.20;90.10;;;;;;5112082;27;20043;-66
2022/10/14 03:03:34;;;;;;;8.88;5.18;;;13.20;90.00;;;;;;5109223;27;20048;-67
2022/10/14 03:06:04;;;;;;;8.13;5.10;;;13.10;90.10;;;;;;5089300;28;20523;-67
2022/10/14 03:08:31;;;;;;;8.50;5.40;;;13.20;90.00;;;;;;5093189;28;20123;-67
2022/10/14 03:10:59;;;;;;;8.18;4.90;;;13.20;90.10;;;;;;5091575;28;20129;-66
2022/10/14 03:13:27;;;;;;;10.27;4.43;;;13.10;90.10;;;;;;5076489;28;20039;-66
2022/10/14 03:15:54;;;;;;;9.38;4.88;;;13.10;90.00;;;;;;5093354;28;20631;-67
2022/10/14 03:18:28;;;;;;;7.10;4.35;;;13.20;90.10;;;;;;5094502;28;20516;-66
2022/10/14 03:21:01;;;;;;;8.75;5.00;;;13.20;89.90;;;;;;5090813;28;20040;-67
2022/10/14 03:23:35;;;;;;;8.80;4.78;;;13.20;89.90;;;;;;5091621;28;20397;-67
2022/10/14 03:26:02;;;;;;;8.07;4.30;;;13.20;90.10;;;;;;5094283;28;20069;-66
2022/10/14 03:28:35;;;;;;;8.90;4.50;;;13.10;90.10;;;;;;5091596;28;20043;-67
2022/10/14 03:31:11;;;;;;;10.32;4.85;;;13.20;90.00;;;;;;5079165;28;20528;-70
2022/10/14 03:33:49;;;;;;;8.07;4.65;;;13.10;90.00;;;;;;5089780;28;20045;-67
2022/10/14 03:36:18;;;;;;;9.18;4.50;;;13.10;90.20;;;;;;5091211;28;20060;-67
2022/10/14 03:38:51;;;;;;;7.85;4.72;;;13.10;90.00;;;;;;5093650;28;20048;-67
2022/10/14 03:41:53;;;;;;;9.90;5.10;;;13.10;90.20;;;;;;5102909;28;20085;-68
2022/10/14 03:44:29;;;;;;;7.85;4.82;;;13.10;90.40;;;;;;5101916;28;20512;-66
2022/10/14 03:47:11;;;;;;;9.45;4.75;;;13.10;90.40;;;;;;5091920;28;20075;-68
2022/10/14 03:49:38;;;;;;;7.50;4.57;;;13.10;90.50;;;;;;5081048;28;20050;-68
2022/10/14 03:52:13;;;;;;;7.40;4.50;;;13.10;90.40;;;;;;5072685;28;20433;-67
2022/10/14 03:54:43;;;;;;;7.38;4.22;;;13.10;90.40;;;;;;5095655;28;20054;-67
2022/10/14 03:57:12;;;;;;;7.55;4.30;;;13.10;90.30;;;;;;5077245;28;20383;-66
2022/10/14 03:59:45;;;;;;;6.28;3.67;;;13.10;90.10;;;;;;5094489;28;20040;-66
2022/10/14 04:02:15;;;;;;;7.57;4.40;;;13.10;90.40;;;;;;5085005;28;20067;-67
2022/10/14 04:04:43;;;;;;;7.05;3.85;;;13.10;90.20;;;;;;5093284;28;20044;-66
2022/10/14 04:07:10;;;;;;;7.10;3.97;;;13.10;90.30;;;;;;5111328;28;20051;-67
2022/10/14 04:09:38;;;;;;;6.70;3.67;;;13.10;90.40;;;;;;5110535;28;20086;-67
2022/10/14 04:12:08;;;;;;;6.60;3.83;;;13.00;90.40;;;;;;5093413;28;20074;-67
2022/10/14 04:14:51;;;;;;;7.68;3.97;;;13.00;90.50;;;;;;5067547;28;20044;-67
2022/10/14 04:17:18;;;;;;;8.95;3.92;;;13.10;90.60;;;;;;5075366;28;20040;-66
2022/10/14 04:19:46;;;;;;;6.10;3.53;;;13.00;90.60;;;;;;5093049;28;20051;-66
2022/10/14 04:22:15;;;;;;;8.40;4.20;;;13.00;90.50;;;;;;5092905;28;20050;-66
2022/10/14 04:24:49;;;;;;;7.20;4.00;;;13.00;90.50;;;;;;5089127;28;20573;-67
2022/10/14 04:27:17;;;;;;;7.43;3.47;;;13.00;90.50;;;;;;5090306;28;20040;-66
2022/10/14 04:29:48;;;;;;;6.53;3.90;;;13.00;90.50;;;;;;5077470;28;20047;-66
2022/10/14 04:32:23;;;;;;;7.00;4.07;;;13.00;90.40;;;;;;5090385;28;20063;-65
2022/10/14 04:34:51;;;;;;;7.80;4.10;;;13.00;90.50;;;;;;5092407;28;20067;-67
2022/10/14 04:37:20;;;;;;;6.18;3.42;;;13.00;90.60;;;;;;5081595;28;20162;-67
2022/10/14 04:40:08;;;;;;;6.53;3.50;;;13.00;90.60;;;;;;5099088;28;20075;-67
2022/10/14 04:42:43;;;;;;;7.78;3.78;;;13.00;90.50;;;;;;5081180;28;20040;-67
2022/10/14 04:45:22;;;;;;;6.70;3.53;;;13.00;90.40;;;;;;5092405;28;20063;-66
2022/10/14 04:47:55;;;;;;;7.32;3.50;;;13.00;90.40;;;;;;5077415;28;20096;-67
2022/10/14 04:50:25;;;;;;;6.50;3.38;;;13.00;90.50;;;;;;5098399;28;20051;-66
2022/10/14 04:53:11;;;;;;;7.28;3.80;;;13.00;90.40;;;;;;5096806;28;20144;-65
2022/10/14 04:55:45;;;;;;;7.07;3.58;;;13.00;90.50;;;;;;5090196;28;20092;-66
2022/10/14 04:58:13;;;;;;;5.03;2.97;;;13.00;90.40;;;;;;5092281;28;20050;-66
2022/10/14 05:00:42;;;;;;;;;;;13.00;90.50;;;;;;5081930;28;20048;-65
2022/10/14 05:03:23;;;;;;;6.78;3.30;;;13.00;90.60;;;;;;5095612;28;19923;-66
2022/10/14 05:05:50;;;;;;;7.72;3.15;;;13.00;90.50;;;;;;5096926;28;20125;-65
2022/10/14 05:08:18;;;;;;;4.80;2.88;;;13.00;90.50;;;;;;5097052;28;20048;-66
2022/10/14 05:10:48;;;;;;;5.80;3.20;;;13.00;90.40;;;;;;5078177;28;20482;-66
2022/10/14 05:13:28;;;;;;;8.43;3.40;;;13.00;90.50;;;;;;5080081;28;20413;-66
2022/10/14 05:16:03;;;;;;;4.97;3.15;;;13.00;90.50;;;;;;5097560;28;20048;-69
2022/10/14 05:18:31;;;;;;;5.97;3.38;;;13.10;90.50;;;;;;5096594;28;20048;-66
2022/10/14 05:21:01;;;;;;;7.32;3.58;;;13.00;90.50;;;;;;5090616;28;20250;-66
2022/10/14 05:23:44;;;;;;;6.70;4.07;;;13.10;90.40;;;;;;5095602;28;20081;-67
2022/10/14 05:26:11;;;;;;;7.82;4.13;;;13.00;90.50;;;;;;5092687;28;20048;-67
2022/10/14 05:28:42;;;;;;;7.18;4.07;;;13.00;90.50;;;;;;5095560;28;20051;-67
2022/10/14 05:31:09;;;;;;;6.97;3.72;;;13.00;90.50;;;;;;5096619;28;20130;-66
2022/10/14 05:33:44;;;;;;;7.53;3.42;;;13.00;90.50;;;;;;5093564;28;20044;-67
2022/10/14 05:36:11;;;;;;;8.73;3.78;;;13.00;90.60;;;;;;5092644;28;20097;-67
2022/10/14 05:38:38;;;;;;;6.10;3.42;;;13.00;90.50;;;;;;5094534;28;20076;-67
2022/10/14 05:41:05;;;;;;;5.28;3.20;;;13.00;90.60;;;;;;5096541;28;20056;-67
2022/10/14 05:43:32;;;;;;;5.82;3.45;;;13.00;90.50;;;;;;5097944;28;20055;-67
2022/10/14 05:46:02;;;;;;;6.63;3.45;;;13.00;90.50;;;;;;5079852;28;20044;-66
2022/10/14 05:48:38;;;;;;;9.25;3.40;;;13.00;90.60;;;;;;5098147;28;20044;-66
2022/10/14 05:51:05;;;;;;;6.78;3.42;;;13.00;90.60;;;;;;5097503;28;20078;-67
2022/10/14 05:53:35;;;;;;;;;;;13.00;90.60;;;;;;5093726;28;20040;-67
2022/10/14 05:56:07;;;;;;;;;;;13.00;90.60;;;;;;5081599;28;19920;-66
2022/10/14 05:58:34;;;;;;;6.00;2.75;;;13.00;90.60;;;;;;5099134;28;19924;-67
2022/10/14 06:01:04;;;;;;;6.15;2.95;;;13.10;90.60;;;;;;5094528;28;20039;-66
2022/10/14 06:03:31;;;;;;;8.13;3.70;;;13.00;90.60;;;;;;5097389;28;20063;-66
2022/10/14 06:05:58;;;;;;;10.35;4.50;;;13.00;90.70;;;;;;5098595;28;20459;-67
2022/10/14 06:08:25;;;;;;;7.38;4.60;;;13.00;90.60;;;;;;5079164;28;20055;-67
2022/10/14 06:10:52;;;;;;;7.93;4.93;;;13.00;90.70;;;;;;5095377;28;20051;-66
2022/10/14 06:13:22;;;;;;;8.25;4.60;;;13.00;90.80;;;;;;5092593;28;20044;-67
2022/10/14 06:15:49;;;;;;;7.55;4.82;;;13.00;90.40;;;;;;5097436;28;20138;-67
2022/10/14 06:18:17;;;;;;;8.65;4.45;;;13.00;90.70;;;;;;5079556;28;20138;-67
2022/10/14 06:20:50;;;;;;;6.45;3.80;;;13.00;90.70;;;;;;5095594;28;20066;-69
2022/10/14 06:23:17;;;;;;;6.63;3.78;;;13.00;90.70;;;;;;5111004;27;20035;-67
2022/10/14 06:25:44;;;;;;;6.75;3.65;;;13.10;90.90;;;;;;5097932;28;20040;-67
2022/10/14 06:28:14;;;;;;;8.27;3.50;;;13.00;90.80;;;;;;5094858;28;20042;-67
2022/10/14 06:30:41;;;;;;;5.90;3.28;;;13.10;90.90;;;;;;5095657;28;20040;-67
2022/10/14 06:33:08;;;;;;;6.70;3.42;;;13.00;90.90;;;;;;5098473;28;20568;-67
2022/10/14 06:35:36;;;;;;;6.68;3.03;;;13.10;90.90;;;;;;5097882;27;20515;-67
2022/10/14 06:38:03;;;;;;;6.00;3.10;;;13.10;90.80;;;;;;5094428;27;20051;-67
2022/10/14 06:40:30;;;;;;;6.88;3.03;;;13.10;90.90;;;;;;5097537;28;20128;-67
2022/10/14 06:42:58;;;;;;;8.35;2.92;;;13.10;90.90;;;;;;5096725;28;20047;-67
2022/10/14 06:45:25;;;;;;;6.05;3.05;;;13.10;90.80;;;;;;5089372;28;20051;-67
2022/10/14 06:47:52;;;;;;;5.45;2.92;;;13.10;90.80;;;;;;5097908;28;20175;-67
2022/10/14 06:50:18;;;;;;;6.75;2.90;;;13.10;90.90;;;;;;5093172;28;20913;-67
2022/10/14 06:52:47;;;;;;;7.20;3.35;;;13.10;90.90;;;;;;5086826;28;20068;-68
2022/10/14 06:55:15;;;;;;;6.32;2.90;;;13.10;90.70;;;;;;5086678;28;20043;-67
2022/10/14 06:57:42;;;;;;;5.95;3.10;;;13.10;90.80;;;;;;5071069;28;20055;-66
2022/10/14 07:00:10;;;;;;;5.28;2.80;;;13.20;90.80;;;;;;5092278;28;20055;-68
2022/10/14 07:02:40;;;;;;;6.28;3.03;;;13.20;90.60;;;;;;5095179;28;20040;-67
2022/10/14 07:05:07;;;;;;;8.30;2.80;;;13.20;90.60;;;;;;5095103;28;20048;-67
2022/10/14 07:07:35;;;;;;;6.00;2.78;;;13.20;90.70;;;;;;5091678;28;20052;-67
2022/10/14 07:10:03;;;;;;;5.30;2.75;;;13.20;90.70;;;;;;5093058;28;20242;-65
2022/10/14 07:12:30;;;;;;;8.93;3.28;;;13.20;90.90;;;;;;5091420;28;20046;-66
2022/10/14 07:14:57;;;;;;;4.55;2.70;;;13.20;90.90;;;;;;5097031;28;20040;-66
2022/10/14 07:17:24;;;;;;;5.68;2.50;;;13.20;90.70;;;;;;5097257;27;20047;-67
2022/10/14 07:19:51;;;;;;;5.55;3.13;;;13.20;90.00;;;;;;5097892;28;20044;-67
2022/10/14 07:22:18;;;;;;;7.30;3.60;;;13.20;89.90;;;;;;5088598;28;20044;-67
2022/10/14 07:24:44;;;;;;;7.88;4.10;;;13.30;89.90;;;;;;5090363;28;20052;-67
2022/10/14 07:27:14;;;;;;;8.15;3.88;;;13.30;89.90;;;;;;5086680;28;20513;-67
2022/10/14 07:29:43;;;;;;;7.35;4.15;;;13.30;90.10;;;;;;5096130;28;20043;-66
2022/10/14 07:32:09;;;;;;;9.40;4.55;;;13.30;90.10;;;;;;5097013;28;20533;-66
2022/10/14 07:34:36;;;;;;;8.38;3.88;;;13.30;89.90;;;;;;5096086;28;20044;-67
2022/10/14 07:37:03;;;;;;;8.32;4.63;;;13.30;89.60;;;;;;5094343;28;20425;-67
2022/10/14 07:39:30;;;;;;;9.30;3.92;;;13.30;89.80;;;;;;5090081;28;20047;-67
2022/10/14 07:41:57;;;;;;;8.32;4.35;;;13.40;89.60;;;;;;5096498;28;20046;-66
2022/10/14 07:44:25;;;;;;;6.60;3.78;;;13.30;89.50;;;;;;5093403;28;20063;-66
2022/10/14 07:46:52;;;;;;;9.23;4.72;;;13.40;89.60;;;;;;5087722;28;20051;-66
2022/10/14 07:49:22;;;;;;;9.07;4.70;;;13.40;89.60;;;;;;5096641;28;20040;-66
2022/10/14 07:51:49;;;;;;;8.02;3.60;;;13.40;89.70;;;;;;5097857;28;20039;-66
2022/10/14 07:54:19;;;;;;;8.85;4.22;;;13.40;89.70;;;;;;5095967;28;20130;-66
2022/10/14 07:56:48;;;;;;;7.70;4.40;;;13.50;89.50;;;;;;5095362;28;20043;-66
2022/10/14 07:59:16;;;;;;;7.53;4.18;;;13.50;89.80;;;;;;5095477;28;20457;-66
2022/10/14 08:01:46;;;;;;;7.22;4.20;;;13.60;90.30;;;;;;5090017;28;20044;-67
2022/10/14 08:04:13;;;;;;;8.43;4.60;;;13.60;90.40;;;;;;5088666;28;20417;-65
2022/10/14 08:06:43;;;;;;;9.57;4.40;;;13.60;89.80;;;;;;5095936;28;20044;-66
2022/10/14 08:09:11;;;;;;;7.18;3.67;;;13.70;90.30;;;;;;5094369;28;20045;-67
2022/10/14 08:11:39;;;;;;;6.40;4.43;;;13.70;90.30;;;;;;5099725;28;20086;-67
2022/10/14 08:14:07;;;;;;;6.60;3.85;;;13.80;90.20;;;;;;5100319;28;20432;-66
2022/10/14 08:16:35;;;;;;;7.22;3.88;;;13.90;90.20;;;;;;5102539;28;20075;-66
2022/10/14 08:19:05;;;;;;;7.95;3.53;;;13.90;90.10;;;;;;5099160;28;20402;-67
2022/10/14 08:21:32;;;;;;;;;;;14.00;90.00;;;;;;5098309;28;20044;-67
2022/10/14 08:23:59;;;;;;;6.03;3.20;;;14.00;90.40;;;;;;5096443;28;19928;-67
2022/10/14 08:26:29;;;;;;;7.32;3.25;;;14.00;90.40;;;;;;5091586;28;20100;-67
2022/10/14 08:28:56;;;;;;;;;;;14.00;90.00;;;;;;5097128;28;21252;-66
2022/10/14 08:31:23;;;;;;;7.20;3.60;;;14.00;90.20;;;;;;5096952;28;20019;-67
2022/10/14 08:33:52;;;;;;;5.97;3.33;;;14.10;89.80;;;;;;5095971;28;20040;-66
2022/10/14 08:36:22;;;;;;;6.82;3.58;;;14.10;90.20;;;;;;5094914;27;20055;-65
2022/10/14 08:38:51;;;;;;;7.50;4.00;;;14.10;90.30;;;;;;5096982;28;20039;-67
2022/10/14 08:41:28;;;;;;;6.78;4.05;;;14.10;90.30;;;;;;5091917;28;20130;-65
2022/10/14 08:44:07;;;;;;;6.63;3.53;;;14.10;89.60;;;;;;5094260;28;20040;-66
2022/10/14 08:46:39;;;;;;;8.10;3.70;;;14.10;90.70;;;;;;5089391;28;20063;-67
2022/10/14 08:49:13;;;;;;;8.75;3.88;;;14.10;90.40;;;;;;5092972;27;20048;-67
2022/10/14 08:51:45;;;;;;;8.63;3.83;;;14.20;90.40;;;;;;5098252;27;20032;-65
2022/10/14 08:54:18;;;;;;;6.97;3.83;;;14.20;90.20;;;;;;5095753;27;20047;-66
2022/10/14 08:56:45;;;;;;;6.65;3.33;;;14.10;90.50;;;;;;5098554;28;20500;-65
2022/10/14 08:59:14;;;;;;;5.25;3.22;;;14.10;90.60;;;;;;5097237;28;20045;-67
2022/10/14 09:01:51;;;;;;;5.38;3.00;;;14.10;90.60;;;;;;5096155;28;20048;-67
2022/10/14 09:04:18;;;;;;;5.93;3.25;;;14.00;89.60;;;;;;5102794;28;20056;-64
2022/10/14 09:06:50;;;;;;;4.95;2.97;;;14.10;90.00;;;;;;5115530;28;20046;-67
2022/10/14 09:09:23;;;;;;;7.82;3.70;;;14.10;90.40;;;;;;5102081;27;20052;-66
2022/10/14 09:11:55;;;;;;;5.22;3.13;;;14.10;90.10;;;;;;5094681;28;20122;-66
2022/10/14 09:14:26;;;;;;;6.40;3.50;;;14.10;90.00;;;;;;5097897;28;20444;-66
2022/10/14 09:16:58;;;;;;;6.60;3.40;;;14.10;90.30;;;;;;5091993;28;20051;-66
2022/10/14 09:19:30;;;;;;;7.85;3.47;;;14.20;90.40;;;;;;5093391;28;20071;-66
2022/10/14 09:22:00;;;;;;;9.75;3.42;;;14.20;90.00;;;;;;5099180;28;20048;-66
2022/10/14 09:24:31;;;;;;;7.70;3.88;;;14.20;89.90;;;;;;5098464;28;20066;-68
2022/10/14 09:27:02;;;;;;;7.78;3.67;;;14.20;90.30;;;;;;5092779;28;20135;-67
2022/10/14 09:29:32;;;;;;;6.78;3.17;;;14.20;90.30;;;;;;5095753;28;20490;-66
2022/10/14 09:32:02;;;;;;;4.75;2.90;;;14.30;90.30;;;;;;5097619;27;20036;-66
2022/10/14 09:34:33;;;;;;;6.22;3.10;;;14.40;89.90;;;;;;5097604;28;20051;-66
2022/10/14 09:37:28;;;;;;;6.25;3.30;;;14.40;90.50;;;;;;5095154;28;20055;-66
2022/10/14 09:39:59;;;;;;;7.95;3.42;;;14.50;90.30;;;;;;5094442;28;20059;-66
2022/10/14 09:42:32;;;;;;;7.25;3.28;;;14.60;90.10;;;;;;5097745;28;20051;-65
2022/10/14 09:45:09;;;;;;;6.18;2.95;;;14.60;90.20;;;;;;5091926;28;20436;-66
2022/10/14 09:47:45;;;;;;;5.78;3.70;;;14.60;90.10;;;;;;5094885;28;20043;-67
2022/10/14 09:50:21;;;;;;;6.53;3.60;;;14.60;89.80;;;;;;5094303;27;20537;-65
2022/10/14 09:52:54;;;;;;;6.60;3.20;;;14.60;89.90;;;;;;5095521;28;20402;-68
2022/10/14 09:55:24;;;;;;;6.20;3.50;;;14.60;90.10;;;;;;5099488;28;20056;-66
2022/10/14 09:58:02;;;;;;;6.50;3.13;;;14.60;90.10;;;;;;5091756;28;20117;-66
2022/10/14 10:00:31;;;;;;;6.50;3.13;;;14.70;90.10;;;;;;5094719;28;20067;-66
2022/10/14 10:02:58;;;;;;;7.30;3.35;;;14.70;90.00;;;;;;5089428;28;20063;-66
2022/10/14 10:05:27;;;;;;;7.40;3.65;;;14.70;89.90;;;;;;5094931;28;20051;-66
2022/10/14 10:08:04;;;;;;;6.00;3.58;;;14.70;89.90;;;;;;5095224;28;20052;-65
2022/10/14 10:10:33;;;;;;;5.63;3.38;;;14.80;89.90;;;;;;5094444;28;20063;-66
2022/10/14 10:13:01;;;;;;;6.70;3.60;;;14.80;89.90;;;;;;5095128;28;20052;-67
2022/10/14 10:15:28;;;;;;;6.10;3.20;;;14.80;89.90;;;;;;5092479;28;20047;-66
2022/10/14 10:17:55;;;;;;;7.85;4.03;;;14.80;89.90;;;;;;5088804;28;20043;-65
2022/10/14 10:20:30;;;;;;;6.53;3.83;;;14.90;90.00;;;;;;5092760;28;20060;-66
2022/10/14 10:22:58;;;;;;;7.88;3.67;;;14.90;89.90;;;;;;5094556;28;20501;-69
2022/10/14 10:25:28;;;;;;;8.00;3.78;;;15.00;89.80;;;;;;5095234;28;20044;-65
2022/10/14 10:27:57;;;;;;;;;;;15.00;89.70;;;;;;5092869;28;20224;-65
2022/10/14 10:30:26;;;;;;;7.57;3.42;;;15.00;89.50;;;;;;5095584;28;19935;-66
2022/10/14 10:33:11;;;;;;;6.55;3.72;;;15.10;89.50;;;;;;5092195;28;20051;-66
2022/10/14 10:35:52;;;;;;;8.02;3.20;;;15.10;89.40;;;;;;5096403;28;20040;-66
2022/10/14 10:38:23;;;;;;;6.85;3.88;;;15.10;89.50;;;;;;5098505;28;20071;-65
2022/10/14 10:41:06;;;;;;;7.72;3.53;;;15.10;89.40;;;;;;5093314;28;20390;-66
2022/10/14 10:43:48;;;;;;;7.07;3.38;;;15.10;89.40;;;;;;5095189;28;20043;-66
2022/10/14 10:46:39;;;;;;;7.60;3.50;;;15.10;89.40;;;;;;5091736;28;20429;-66
2022/10/14 10:49:15;;;;;;;7.90;3.40;;;15.10;89.40;;;;;;5095279;28;20182;-64
2022/10/14 10:51:52;;;;;;;6.32;3.83;;;15.10;89.40;;;;;;5090496;28;20039;-65
2022/10/14 10:54:29;;;;;;;8.23;4.40;;;15.10;89.30;;;;;;5092490;28;20064;-66
2022/10/14 10:57:01;;;;;;;8.18;3.85;;;15.10;89.40;;;;;;5096231;28;20101;-65
2022/10/14 10:59:55;;;;;;;8.48;4.00;;;15.10;89.50;;;;;;5091922;28;20044;-66
2022/10/14 11:02:54;;;;;;;8.30;4.45;;;15.10;89.50;;;;;;5093747;28;20068;-66
2022/10/14 11:05:46;;;;;;;7.45;3.78;;;15.10;89.60;;;;;;5084008;28;20137;-67
2022/10/14 11:14:26;;;;;;;10.35;4.00;;;15.10;89.70;;;;;;5094813;28;20106;-65
2022/10/14 11:16:55;;;;;;;;;;;15.10;90.10;;;;;;5096181;28;20051;-66
2022/10/14 11:19:28;;;;;;;6.50;3.58;;;15.10;90.10;;;;;;5091680;28;19924;-66
2022/10/14 11:22:03;;;;;;;8.95;4.28;;;15.10;89.90;;;;;;5095339;28;20046;-65
2022/10/14 11:24:42;;;;;;;6.47;3.78;;;15.10;89.90;;;;;;5098615;28;20126;-66
2022/10/14 11:27:14;;;;;;;6.10;3.47;;;15.20;90.00;;;;;;5095590;27;20054;-66
2022/10/14 11:30:05;;;;;;;6.70;4.05;;;15.20;89.80;;;;;;5095375;28;20040;-66
2022/10/14 11:32:45;;;;;;;8.05;3.90;;;15.30;89.60;;;;;;5091683;28;20075;-65
2022/10/14 11:35:32;;;;;;;5.75;3.53;;;15.40;89.40;;;;;;5095351;28;20048;-65
2022/10/14 11:38:14;;;;;;;6.45;3.90;;;15.40;89.20;;;;;;5094347;28;20040;-66
2022/10/14 11:40:48;;;;;;;9.20;4.18;;;15.40;89.40;;;;;;5095538;28;20044;-65
2022/10/14 11:43:24;;;;;;;7.28;3.90;;;15.40;89.40;;;;;;5095371;28;20055;-65
2022/10/14 11:45:57;;;;;;;8.00;4.55;;;15.40;89.40;;;;;;5088424;28;20047;-66
2022/10/14 11:48:29;;;;;;;7.80;4.15;;;15.50;89.30;;;;;;5113006;28;20047;-68
2022/10/14 11:51:05;;;;;;;6.95;3.92;;;15.50;89.20;;;;;;5109453;28;20108;-66
2022/10/14 11:53:42;;;;;;;5.75;3.63;;;15.60;89.20;;;;;;5092942;28;20052;-66
2022/10/14 11:56:29;;;;;;;7.43;3.60;;;15.50;89.30;;;;;;5095030;28;20173;-66
2022/10/14 11:59:19;;;;;;;8.93;3.40;;;15.50;89.10;;;;;;5093129;28;20093;-65
2022/10/14 12:01:51;;;;;;;8.15;3.70;;;15.60;89.10;;;;;;5092881;28;20135;-65
2022/10/14 12:04:26;;;;;;;4.63;2.75;;;15.60;88.80;;;;;;5084857;28;20040;-66
2022/10/14 12:07:00;;;;;;;6.28;3.70;;;15.60;88.80;;;;;;5094085;28;20048;-66
2022/10/14 12:09:37;;;;;;;8.38;4.47;;;15.60;88.70;;;;;;5092784;28;20179;-66
2022/10/14 12:12:08;;;;;;;9.80;3.95;;;15.60;88.90;;;;;;5090833;28;20056;-67
2022/10/14 12:14:37;;;;;;;6.30;3.90;;;15.60;88.90;;;;;;5094365;28;20130;-65
2022/10/14 12:17:15;;;;;;;6.88;3.83;;;15.60;88.80;;;;;;5090758;28;20417;-65
2022/10/14 12:19:42;;;;;;;8.38;4.25;;;15.60;88.90;;;;;;5081253;28;20051;-65
2022/10/14 12:22:16;;;;;;;7.38;4.07;;;15.60;88.90;;;;;;5078241;28;20051;-66
2022/10/14 12:24:48;;;;;;;6.65;3.75;;;15.60;89.00;;;;;;5082452;28;20048;-65
2022/10/14 12:27:17;;;;;;;10.38;4.78;;;15.60;89.00;;;;;;5082292;28;20470;-65
2022/10/14 12:29:46;;;;;;;8.13;4.30;;;15.70;89.00;;;;;;5092329;28;20093;-66
2022/10/14 12:32:24;;;;;;;8.90;4.03;;;15.60;89.10;;;;;;5094091;28;20449;-66
2022/10/14 12:34:53;;;;;;;8.80;4.60;;;15.60;89.40;;;;;;5093378;28;20109;-67
2022/10/14 12:37:48;;;;;;;7.63;4.50;;;15.70;89.30;;;;;;5094661;28;20489;-66
2022/10/14 12:40:29;;;;;;;6.68;4.35;;;15.60;89.20;;;;;;5081852;28;20049;-67
2022/10/14 12:43:18;;;;;;;9.32;4.63;;;15.70;89.10;;;;;;5081686;28;20095;-67
2022/10/14 12:46:08;;;;;;;13.73;7.23;;;15.70;88.90;;;;;;5080914;28;20040;-66
2022/10/14 12:48:38;;;;;;;13.27;8.18;;;15.60;88.70;;;;;;5082557;28;20092;-65
2022/10/14 12:51:12;;;;;;;14.30;8.05;;;15.70;88.50;;;;;;5091187;28;20056;-66
2022/10/14 12:53:47;;;;;;;15.43;9.10;;;15.70;88.40;;;;;;5094801;28;20055;-66
2022/10/14 12:56:30;;;;;;;15.10;9.57;;;15.70;88.40;;;;;;5091398;28;20142;-67
2022/10/14 12:59:00;;;;;;;14.80;8.98;;;15.70;88.20;;;;;;5093693;28;20044;-66
2022/10/14 13:01:28;;;;;;;14.23;8.55;;;15.70;88.20;;;;;;5092375;28;20040;-65
2022/10/14 13:03:59;;;;;;;11.23;7.05;;;15.60;88.20;;;;;;5078310;28;20052;-66
2022/10/14 13:06:34;;;;;;;12.10;7.32;;;15.70;88.40;;;;;;5090307;28;20135;-66
2022/10/14 13:09:40;;;;;;;13.35;7.07;;;15.70;88.50;;;;;;5098762;28;20043;-67
2022/10/14 13:12:43;;;;;;;14.20;8.15;;;15.70;88.60;;;;;;5096759;28;20051;-65
2022/10/14 13:15:50;;;;;;;15.07;11.82;;;15.70;88.50;;;;;;5097608;28;20127;-66
2022/10/14 13:18:35;;;;;;;16.40;13.90;;;15.60;88.50;;;;;;5090815;28;21315;-66
2022/10/14 13:21:05;;;;;;;16.88;14.63;;;15.60;88.50;;;;;;5087209;28;20082;-67